Sirius — WDA2145 — position and weather

sailwx.info

Track history (hours):
 
Tides and Currents Weather Stations Pressure Air Temp Water Temp Dewpoint Dewpoint Depression Visibility Wind Speed Wind Dir Waves Ship Positions

Sirius

Owner: TISBURY TOWING AND TRANSPORTATION INC, TISBURY, MA. More information available from US FCC via Universal Licensing System and Coast Guard Vessel Documentation Center.

Last reported at 2015-Aug-28 16:27 UTC. Time now 2015-Aug-29 00:25 UTC.
Position N 41°05' W 072°06'.

Length 19 m; draft 1.9 m.

Type: Towing. MMSI: 367181040.

Date/timePositionNaut miles runAvg speedWind from/ knotsBaromVisibWave heightAir tempDewpointWater temp
2015-Aug-28 16:27N 41°05' W 072°06'0 0.0
2015-Aug-28 15:33N 41°05' W 072°06'0 0.0
2015-Aug-28 14:33N 41°05' W 072°06'0 0.0
2015-Aug-28 13:33N 41°05' W 072°06'0 0.0
2015-Aug-28 12:33N 41°05' W 072°06'0 0.1
2015-Aug-28 11:33N 41°05' W 072°07'2 1.7
2015-Aug-28 10:33N 41°04' W 072°08'3 3.2
2015-Aug-28 09:33N 41°07' W 072°10'6 6.4
2015-Aug-28 08:33N 41°11' W 072°03'6 5.7
2015-Aug-28 07:33N 41°12' W 071°55'5 4.9
2015-Aug-28 06:33N 41°13' W 071°49'5 5.4
2015-Aug-28 05:33N 41°15' W 071°42'6 5.8
2015-Aug-28 04:33N 41°17' W 071°35'6 6.0
2015-Aug-28 03:33N 41°19' W 071°28'6 6.4
2015-Aug-28 02:33N 41°21' W 071°20'6 6.1
2015-Aug-28 01:33N 41°23' W 071°12'6 5.9
2015-Aug-28 00:33N 41°25' W 071°05'6 5.6
2015-Aug-27 23:33N 41°28' W 070°58'17 0.9
2015-Aug-27 04:19N 41°27' W 070°36'2 1.4
2015-Aug-27 02:33N 41°30' W 070°36'5 4.7
2015-Aug-27 01:33N 41°32' W 070°42'6 6.3
2015-Aug-27 00:34N 41°33' W 070°50'2 0.5
2015-Aug-26 20:32N 41°33' W 070°48'7 6.8
2015-Aug-26 19:33N 41°31' W 070°39'4 4.2
2015-Aug-26 18:34N 41°27' W 070°36'4 3.6
2015-Aug-26 17:34N 41°30' W 070°38'6 6.2
2015-Aug-26 16:33N 41°32' W 070°46'7 6.2
2015-Aug-26 15:21N 41°37' W 070°54'4 0.5
2015-Aug-26 06:28N 41°33' W 070°51'10 3.6
2015-Aug-26 03:31N 41°30' W 070°38'7 7.1
2015-Aug-26 02:33N 41°32' W 070°46'5 1.4
2015-Aug-25 23:15N 41°34' W 070°52'5 6.9
2015-Aug-25 22:33N 41°32' W 070°46'6 5.9
2015-Aug-25 21:34N 41°30' W 070°39'4 3.7
2015-Aug-25 20:30N 41°27' W 070°36'0 0.0
2015-Aug-25 19:33N 41°27' W 070°36'0 0.1
2015-Aug-25 18:33N 41°27' W 070°36'2 0.1
2015-Aug-25 03:33N 41°30' W 070°36'7 7.2
2015-Aug-25 02:33N 41°32' W 070°45'8 7.8
2015-Aug-25 01:33N 41°36' W 070°54'1 0.7
2015-Aug-25 00:16N 41°37' W 070°54'5 6.8
2015-Aug-24 23:33N 41°33' W 070°51'7 7.1
2015-Aug-24 22:32N 41°31' W 070°41'6 5.1
2015-Aug-24 21:26N 41°27' W 070°36'1 0.8
2015-Aug-24 20:26N 41°28' W 070°35'5 5.6
2015-Aug-24 19:33N 41°31' W 070°40'7 6.9
2015-Aug-24 18:32N 41°33' W 070°49'6 5.8
2015-Aug-24 17:26N 41°38' W 070°55'  
2015-Aug-22 03:32N 41°27' W 070°36'2 1.9
2015-Aug-22 02:32N 41°27' W 070°33'0 0.1
2015-Aug-22 01:33N 41°27' W 070°33'0 0.0
2015-Aug-22 00:33N 41°27' W 070°33'0 0.0
2015-Aug-21 23:30N 41°27' W 070°33'2 1.7
2015-Aug-21 22:25N 41°27' W 070°36'0 0.1
2015-Aug-21 21:32N 41°27' W 070°36'0 0.0
2015-Aug-21 20:24N 41°27' W 070°36'0 0.0
2015-Aug-21 19:30N 41°27' W 070°36'0 0.0
2015-Aug-21 18:33N 41°27' W 070°36'0 0.0
2015-Aug-21 17:33N 41°27' W 070°36'0 0.0
2015-Aug-21 16:26N 41°27' W 070°36'2 2.0
2015-Aug-21 15:33N 41°28' W 070°34'1 1.0
2015-Aug-21 14:27N 41°27' W 070°33'0 0.1
2015-Aug-21 13:24N 41°27' W 070°33'1 0.4
2015-Aug-21 10:33N 41°28' W 070°34'2 2.0
2015-Aug-21 09:33N 41°27' W 070°36'0 0.0
2015-Aug-21 08:28N 41°27' W 070°36'0 0.0
2015-Aug-21 07:33N 41°27' W 070°36'0 0.0
2015-Aug-21 06:33N 41°27' W 070°36'0 0.0
2015-Aug-21 05:33N 41°27' W 070°36'0 0.0
2015-Aug-21 04:33N 41°27' W 070°36'0 0.0
2015-Aug-21 03:32N 41°27' W 070°36'0 0.0
2015-Aug-21 02:33N 41°27' W 070°36'0 0.0
2015-Aug-21 01:33N 41°27' W 070°36'2 2.4
2015-Aug-21 00:33N 41°30' W 070°37'5 4.5
2015-Aug-20 23:33N 41°32' W 070°42'6 6.1
2015-Aug-20 22:33N 41°33' W 070°50'5 5.3
2015-Aug-20 21:33N 41°37' W 070°54'1 0.7
2015-Aug-20 20:16N 41°38' W 070°55'1 1.8
2015-Aug-20 19:32N 41°37' W 070°54'8 8.0
2015-Aug-20 18:33N 41°32' W 070°46'7 7.3
2015-Aug-20 17:32N 41°30' W 070°36'2 2.3
2015-Aug-20 16:32N 41°27' W 070°36'0 0.0
2015-Aug-19 05:28N 41°27' W 070°36'0 0.0
2015-Aug-19 04:33N 41°27' W 070°36'2 2.4
2015-Aug-19 03:34N 41°30' W 070°37'4 4.2
2015-Aug-19 02:33N 41°32' W 070°42'5 4.9
2015-Aug-19 01:33N 41°33' W 070°48'4 4.4
2015-Aug-19 00:33N 41°35' W 070°53'4 3.6
2015-Aug-18 23:34N 41°39' W 070°55'0 0.4
2015-Aug-18 22:33N 41°39' W 070°55'8 7.5
2015-Aug-18 21:32N 41°33' W 070°49'9 8.8
2015-Aug-18 20:33N 41°30' W 070°38'3 3.4
2015-Aug-18 19:33N 41°27' W 070°36'  
Track history (hours):
 
Tides and Currents Weather Stations Pressure Air Temp Water Temp Dewpoint Dewpoint Depression Visibility Wind Speed Wind Dir Waves Ship Positions

Sirius

Owner: TISBURY TOWING AND TRANSPORTATION INC, TISBURY, MA. More information available from US FCC via Universal Licensing System and Coast Guard Vessel Documentation Center.

Last reported at 2015-Aug-28 16:27 UTC. Time now 2015-Aug-29 00:25 UTC.
Position N 41°05' W 072°06'.

Length 19 m; draft 1.9 m.

Type: Towing. MMSI: 367181040.

Date/timePositionNaut miles runAvg speedWind from/ knotsBaromVisibWave heightAir tempDewpointWater temp
2015-Aug-28 16:27N 41°05' W 072°06'0 0.0
2015-Aug-28 15:33N 41°05' W 072°06'0 0.0
2015-Aug-28 14:33N 41°05' W 072°06'0 0.0
2015-Aug-28 13:33N 41°05' W 072°06'0 0.0
2015-Aug-28 12:33N 41°05' W 072°06'0 0.1
2015-Aug-28 11:33N 41°05' W 072°07'2 1.7
2015-Aug-28 10:33N 41°04' W 072°08'3 3.2
2015-Aug-28 09:33N 41°07' W 072°10'6 6.4
2015-Aug-28 08:33N 41°11' W 072°03'6 5.7
2015-Aug-28 07:33N 41°12' W 071°55'5 4.9
2015-Aug-28 06:33N 41°13' W 071°49'5 5.4
2015-Aug-28 05:33N 41°15' W 071°42'6 5.8
2015-Aug-28 04:33N 41°17' W 071°35'6 6.0
2015-Aug-28 03:33N 41°19' W 071°28'6 6.4
2015-Aug-28 02:33N 41°21' W 071°20'6 6.1
2015-Aug-28 01:33N 41°23' W 071°12'6 5.9
2015-Aug-28 00:33N 41°25' W 071°05'6 5.6
2015-Aug-27 23:33N 41°28' W 070°58'17 0.9
2015-Aug-27 04:19N 41°27' W 070°36'2 1.4
2015-Aug-27 02:33N 41°30' W 070°36'5 4.7
2015-Aug-27 01:33N 41°32' W 070°42'6 6.3
2015-Aug-27 00:34N 41°33' W 070°50'2 0.5
2015-Aug-26 20:32N 41°33' W 070°48'7 6.8
2015-Aug-26 19:33N 41°31' W 070°39'4 4.2
2015-Aug-26 18:34N 41°27' W 070°36'4 3.6
2015-Aug-26 17:34N 41°30' W 070°38'6 6.2
2015-Aug-26 16:33N 41°32' W 070°46'7 6.2
2015-Aug-26 15:21N 41°37' W 070°54'4 0.5
2015-Aug-26 06:28N 41°33' W 070°51'10 3.6
2015-Aug-26 03:31N 41°30' W 070°38'7 7.1
2015-Aug-26 02:33N 41°32' W 070°46'5 1.4
2015-Aug-25 23:15N 41°34' W 070°52'5 6.9
2015-Aug-25 22:33N 41°32' W 070°46'6 5.9
2015-Aug-25 21:34N 41°30' W 070°39'4 3.7
2015-Aug-25 20:30N 41°27' W 070°36'0 0.0
2015-Aug-25 19:33N 41°27' W 070°36'0 0.1
2015-Aug-25 18:33N 41°27' W 070°36'2 0.1
2015-Aug-25 03:33N 41°30' W 070°36'7 7.2
2015-Aug-25 02:33N 41°32' W 070°45'8 7.8
2015-Aug-25 01:33N 41°36' W 070°54'1 0.7
2015-Aug-25 00:16N 41°37' W 070°54'5 6.8
2015-Aug-24 23:33N 41°33' W 070°51'7 7.1
2015-Aug-24 22:32N 41°31' W 070°41'6 5.1
2015-Aug-24 21:26N 41°27' W 070°36'1 0.8
2015-Aug-24 20:26N 41°28' W 070°35'5 5.6
2015-Aug-24 19:33N 41°31' W 070°40'7 6.9
2015-Aug-24 18:32N 41°33' W 070°49'6 5.8
2015-Aug-24 17:26N 41°38' W 070°55'  
2015-Aug-22 03:32N 41°27' W 070°36'2 1.9
2015-Aug-22 02:32N 41°27' W 070°33'0 0.1
2015-Aug-22 01:33N 41°27' W 070°33'0 0.0
2015-Aug-22 00:33N 41°27' W 070°33'0 0.0
2015-Aug-21 23:30N 41°27' W 070°33'2 1.7
2015-Aug-21 22:25N 41°27' W 070°36'0 0.1
2015-Aug-21 21:32N 41°27' W 070°36'0 0.0
2015-Aug-21 20:24N 41°27' W 070°36'0 0.0
2015-Aug-21 19:30N 41°27' W 070°36'0 0.0
2015-Aug-21 18:33N 41°27' W 070°36'0 0.0
2015-Aug-21 17:33N 41°27' W 070°36'0 0.0
2015-Aug-21 16:26N 41°27' W 070°36'2 2.0
2015-Aug-21 15:33N 41°28' W 070°34'1 1.0
2015-Aug-21 14:27N 41°27' W 070°33'0 0.1
2015-Aug-21 13:24N 41°27' W 070°33'1 0.4
2015-Aug-21 10:33N 41°28' W 070°34'2 2.0
2015-Aug-21 09:33N 41°27' W 070°36'0 0.0
2015-Aug-21 08:28N 41°27' W 070°36'0 0.0
2015-Aug-21 07:33N 41°27' W 070°36'0 0.0
2015-Aug-21 06:33N 41°27' W 070°36'0 0.0
2015-Aug-21 05:33N 41°27' W 070°36'0 0.0
2015-Aug-21 04:33N 41°27' W 070°36'0 0.0
2015-Aug-21 03:32N 41°27' W 070°36'0 0.0
2015-Aug-21 02:33N 41°27' W 070°36'0 0.0
2015-Aug-21 01:33N 41°27' W 070°36'2 2.4
2015-Aug-21 00:33N 41°30' W 070°37'5 4.5
2015-Aug-20 23:33N 41°32' W 070°42'6 6.1
2015-Aug-20 22:33N 41°33' W 070°50'5 5.3
2015-Aug-20 21:33N 41°37' W 070°54'1 0.7
2015-Aug-20 20:16N 41°38' W 070°55'1 1.8
2015-Aug-20 19:32N 41°37' W 070°54'8 8.0
2015-Aug-20 18:33N 41°32' W 070°46'7 7.3
2015-Aug-20 17:32N 41°30' W 070°36'2 2.3
2015-Aug-20 16:32N 41°27' W 070°36'0 0.0
2015-Aug-19 05:28N 41°27' W 070°36'0 0.0
2015-Aug-19 04:33N 41°27' W 070°36'2 2.4
2015-Aug-19 03:34N 41°30' W 070°37'4 4.2
2015-Aug-19 02:33N 41°32' W 070°42'5 4.9
2015-Aug-19 01:33N 41°33' W 070°48'4 4.4
2015-Aug-19 00:33N 41°35' W 070°53'4 3.6
2015-Aug-18 23:34N 41°39' W 070°55'0 0.4
2015-Aug-18 22:33N 41°39' W 070°55'8 7.5
2015-Aug-18 21:32N 41°33' W 070°49'9 8.8
2015-Aug-18 20:33N 41°30' W 070°38'3 3.4
2015-Aug-18 19:33N 41°27' W 070°36'  

Dump ship's entire track history